createdAt,value
2022-08-11T12:14:38.481Z,2.20
2022-08-11T12:17:06.487Z,2.00
2022-08-11T12:19:35.658Z,2.23
2022-08-11T12:22:22.925Z,1.70
2022-08-11T12:25:50.057Z,2.00
2022-08-11T12:28:46.195Z,1.97
2022-08-11T12:31:13.839Z,2.20
2022-08-11T12:33:44.688Z,2.10
2022-08-11T12:36:17.091Z,2.37
2022-08-11T12:38:50.315Z,1.93
2022-08-11T12:41:40.911Z,2.37
2022-08-11T12:44:29.749Z,1.73
2022-08-11T12:47:01.382Z,2.20
2022-08-11T12:49:51.289Z,2.07
2022-08-11T12:52:29.324Z,2.07
2022-08-11T12:55:04.080Z,2.00
2022-08-11T12:57:55.929Z,2.20
2022-08-11T13:00:44.666Z,1.93
2022-08-11T13:03:32.542Z,2.20
2022-08-11T13:06:05.372Z,2.20
2022-08-11T13:08:36.932Z,1.90
2022-08-11T13:11:56.154Z,1.97
2022-08-11T13:14:15.577Z,1.97
2022-08-11T13:17:04.347Z,2.27
2022-08-11T13:19:32.811Z,2.17
2022-08-11T13:22:02.489Z,2.20
2022-08-11T13:24:34.207Z,2.10
2022-08-11T13:27:05.039Z,1.70
2022-08-11T13:29:32.781Z,2.10
2022-08-11T13:32:00.485Z,2.50
2022-08-11T13:34:32.071Z,1.90
2022-08-11T13:37:04.330Z,2.10
2022-08-11T13:39:33.676Z,2.23
2022-08-11T13:42:03.814Z,2.00
2022-08-11T13:44:36.682Z,2.50
2022-08-11T13:47:06.869Z,2.57
2022-08-11T13:49:39.831Z,1.80
2022-08-11T13:52:13.195Z,1.90
2022-08-11T13:54:41.769Z,2.17
2022-08-11T13:57:38.559Z,2.07
2022-08-11T14:00:23.522Z,2.40
2022-08-11T14:02:57.808Z,1.90
2022-08-11T14:05:38.145Z,1.60
2022-08-11T14:08:37.766Z,2.20
2022-08-11T14:12:21.751Z,2.27
2022-08-11T14:14:13.772Z,3.40
2022-08-11T14:16:44.783Z,2.03
2022-08-11T14:19:14.637Z,2.03
2022-08-11T14:22:07.274Z,1.90
2022-08-11T14:24:38.947Z,2.37
2022-08-11T14:27:09.211Z,2.20
2022-08-11T14:29:58.078Z,1.83
2022-08-11T14:32:26.874Z,2.17
2022-08-11T14:34:55.971Z,2.40
2022-08-11T14:37:25.722Z,2.40
2022-08-11T14:39:58.221Z,2.60
2022-08-11T14:42:48.638Z,2.30
2022-08-11T14:45:55.533Z,2.37
2022-08-11T14:48:24.452Z,2.70
2022-08-11T14:50:52.918Z,2.57
2022-08-11T14:53:22.711Z,2.30
2022-08-11T14:56:09.931Z,2.43
2022-08-11T14:58:43.226Z,2.30
2022-08-11T15:01:30.538Z,2.73
2022-08-11T15:04:22.410Z,2.00
2022-08-11T15:06:48.714Z,1.80
2022-08-11T15:09:16.298Z,2.27
2022-08-11T15:12:03.597Z,2.30
2022-08-11T15:14:49.950Z,2.23
2022-08-11T15:17:24.095Z,1.80
2022-08-11T15:20:23.522Z,3.03
2022-08-11T15:23:16.193Z,2.40
2022-08-11T15:25:46.431Z,1.90
2022-08-11T15:28:38.546Z,2.03
2022-08-11T15:31:24.678Z,1.90
2022-08-11T15:34:18.707Z,2.50
2022-08-11T15:37:07.257Z,1.80
2022-08-11T15:40:32.143Z,2.57
2022-08-11T15:43:53.439Z,2.20
2022-08-11T15:46:29.604Z,2.13
2022-08-11T15:49:06.521Z,2.30
2022-08-11T15:51:42.943Z,2.10
2022-08-11T15:54:25.519Z,2.03
2022-08-11T15:56:55.611Z,2.30
2022-08-11T15:59:44.299Z,2.20
2022-08-11T16:02:34.398Z,2.30
2022-08-11T16:05:06.645Z,2.50
2022-08-11T16:07:40.780Z,2.40
2022-08-11T16:10:24.922Z,2.37
2022-08-11T16:13:05.221Z,2.73
2022-08-11T16:16:06.566Z,2.37
2022-08-11T16:18:42.201Z,2.27
2022-08-11T16:21:33.716Z,2.53
2022-08-11T16:24:06.854Z,2.70
2022-08-11T16:27:07.471Z,2.57
2022-08-11T16:29:30.280Z,2.20
2022-08-11T16:32:17.095Z,2.70
2022-08-11T16:35:05.373Z,2.63
2022-08-11T16:37:53.438Z,2.63
2022-08-11T16:40:22.855Z,3.00
2022-08-11T16:43:11.816Z,2.70
2022-08-11T16:45:59.629Z,3.43
2022-08-11T16:48:37.345Z,2.90
2022-08-11T16:51:08.133Z,2.53
2022-08-11T16:53:59.957Z,2.40
2022-08-11T16:56:41.954Z,2.60
2022-08-11T16:59:18.230Z,2.43
2022-08-11T17:01:59.992Z,2.50
2022-08-11T17:05:30.367Z,3.07
2022-08-11T17:08:20.463Z,2.80
2022-08-11T17:11:22.398Z,2.60
2022-08-11T17:13:58.916Z,2.23
2022-08-11T17:16:36.446Z,2.23
2022-08-11T17:20:41.298Z,2.57
2022-08-11T17:22:29.788Z,2.30
2022-08-11T17:25:00.006Z,2.40
2022-08-11T17:27:28.490Z,2.80
2022-08-11T17:29:59.912Z,2.00
2022-08-11T17:33:09.942Z,2.70
2022-08-11T17:35:41.023Z,2.40
2022-08-11T17:38:23.111Z,2.30
2022-08-11T17:41:22.756Z,2.00
2022-08-11T17:44:12.419Z,1.90
2022-08-11T17:47:05.139Z,1.83
2022-08-11T17:49:37.916Z,2.13
2022-08-11T17:52:26.390Z,2.23
2022-08-11T17:55:14.577Z,2.13
2022-08-11T17:58:01.378Z,1.90
2022-08-11T18:00:29.910Z,1.70
2022-08-11T18:03:19.059Z,1.97
2022-08-11T18:05:49.367Z,2.00
2022-08-11T18:08:39.770Z,2.00
2022-08-11T18:12:06.426Z,2.20
2022-08-11T18:14:34.955Z,2.00
2022-08-11T18:17:22.070Z,2.20
2022-08-11T18:20:08.292Z,2.10
2022-08-11T18:23:01.676Z,2.07
2022-08-11T18:25:54.317Z,2.40
2022-08-11T18:28:44.887Z,2.20
2022-08-11T18:31:34.091Z,2.60
2022-08-11T18:34:28.653Z,1.93
2022-08-11T18:37:30.599Z,2.30
2022-08-11T18:40:24.822Z,2.30
2022-08-11T18:43:14.186Z,2.13
2022-08-11T18:46:07.153Z,2.20
2022-08-11T18:48:58.599Z,1.80
2022-08-11T18:51:46.687Z,1.90
2022-08-11T18:54:34.724Z,2.03
2022-08-11T18:57:25.293Z,2.07
2022-08-11T19:00:13.534Z,2.07
2022-08-11T19:03:02.321Z,2.10
2022-08-11T19:06:31.772Z,1.93
2022-08-11T19:09:01.181Z,1.90
2022-08-11T19:11:49.888Z,2.47
2022-08-11T19:14:36.922Z,2.17
2022-08-11T19:17:43.970Z,2.67
2022-08-11T19:20:35.159Z,2.53
2022-08-11T19:23:22.358Z,2.77
2022-08-11T19:26:08.667Z,2.00
2022-08-11T19:28:58.290Z,2.57
2022-08-11T19:31:45.547Z,2.40
2022-08-11T19:34:37.091Z,1.97
2022-08-11T19:37:25.750Z,2.30
2022-08-11T19:40:14.241Z,2.07
2022-08-11T19:43:01.924Z,2.30
2022-08-11T19:45:52.256Z,2.37
2022-08-11T19:48:44.638Z,2.67
2022-08-11T19:51:32.305Z,2.60
2022-08-11T19:54:19.703Z,2.03
2022-08-11T19:57:08.375Z,2.30
2022-08-11T19:59:55.026Z,2.67
2022-08-11T20:02:41.557Z,2.30
2022-08-11T20:05:27.964Z,2.10
2022-08-11T20:08:16.019Z,2.50
2022-08-11T20:11:06.126Z,1.97
2022-08-11T20:13:52.719Z,2.23
2022-08-11T20:16:41.122Z,2.00
2022-08-11T20:19:54.930Z,2.10
2022-08-11T20:22:36.566Z,2.20
2022-08-11T20:25:24.213Z,2.00
2022-08-11T20:28:12.388Z,2.57
2022-08-11T20:30:59.667Z,2.67
2022-08-11T20:33:45.286Z,2.57
2022-08-11T20:36:33.439Z,3.07
2022-08-11T20:39:21.172Z,3.07
2022-08-11T20:42:07.810Z,2.40
2022-08-11T20:44:55.903Z,2.27
2022-08-11T20:47:59.225Z,2.30
2022-08-11T20:50:47.977Z,2.30
2022-08-11T20:53:39.073Z,2.40
2022-08-11T20:56:30.100Z,2.40
2022-08-11T20:59:21.977Z,2.80
2022-08-11T21:02:10.549Z,2.50
2022-08-11T21:05:00.220Z,2.47
2022-08-11T21:11:00.677Z,2.40
2022-08-11T21:13:51.399Z,2.50
2022-08-11T21:16:51.213Z,2.50
2022-08-11T21:20:00.764Z,2.33
2022-08-11T21:22:59.532Z,2.80
2022-08-11T21:26:02.021Z,3.07
2022-08-11T21:28:50.974Z,2.43
2022-08-11T21:31:38.123Z,2.63
2022-08-11T21:34:26.741Z,2.80
2022-08-11T21:37:12.791Z,2.50
2022-08-11T21:40:00.277Z,3.03
2022-08-11T21:42:46.990Z,2.37
2022-08-11T21:45:34.288Z,2.77
2022-08-11T21:48:20.908Z,2.67
2022-08-11T21:51:06.450Z,2.80
2022-08-11T21:53:52.768Z,2.93
2022-08-11T21:56:40.460Z,3.20
2022-08-11T21:59:27.234Z,3.17
2022-08-11T22:02:13.342Z,3.37
2022-08-11T22:05:00.536Z,3.40
2022-08-11T22:07:47.164Z,3.60
2022-08-11T22:10:41.855Z,2.97
2022-08-11T22:13:30.741Z,3.03
2022-08-11T22:16:18.314Z,3.00
2022-08-11T22:19:05.928Z,2.90
2022-08-11T22:22:03.294Z,3.20
2022-08-11T22:24:52.047Z,3.10
2022-08-11T22:27:40.051Z,3.10
2022-08-11T22:30:27.831Z,3.77
2022-08-11T22:33:16.460Z,3.83
2022-08-11T22:36:07.598Z,3.27
2022-08-11T22:38:55.887Z,3.73
2022-08-11T22:41:42.288Z,3.83
2022-08-11T22:44:28.892Z,3.20
2022-08-11T22:47:18.318Z,3.27
2022-08-11T22:50:08.184Z,2.97
2022-08-11T22:52:54.848Z,3.07
2022-08-11T22:55:43.038Z,2.73
2022-08-11T22:58:29.209Z,3.07
2022-08-11T23:01:15.419Z,3.13
2022-08-11T23:04:01.725Z,2.97
2022-08-11T23:06:48.859Z,2.93
2022-08-11T23:09:36.169Z,2.90
2022-08-11T23:12:22.340Z,2.70
2022-08-11T23:15:09.037Z,3.30
2022-08-11T23:17:55.776Z,3.10
2022-08-11T23:20:43.975Z,3.13
2022-08-11T23:23:32.590Z,2.63
2022-08-11T23:26:20.770Z,2.53
2022-08-11T23:29:06.570Z,2.97
2022-08-11T23:31:55.226Z,2.93
2022-08-11T23:35:04.343Z,2.80
2022-08-11T23:37:51.675Z,3.33
2022-08-11T23:40:37.306Z,3.30
2022-08-11T23:43:23.707Z,2.80
2022-08-11T23:46:09.219Z,3.00
2022-08-11T23:48:57.981Z,3.60
2022-08-11T23:51:44.450Z,2.87
2022-08-11T23:54:36.607Z,2.73
2022-08-11T23:57:23.924Z,3.13
